Time,TemperatureF,DewpointF,PressureIn,WindDirection,WindDirectionDegrees,WindSpeedMPH,WindSpeedGustMPH,Humidity,HourlyPrecipIn,Conditions,Clouds,dailyrainin,SoftwareType,DateUTC
2013-05-07 00:01:00,44.3,44.3,26.63,North,0,0.0,0.0,100,0.00,,,-99.99,VWS V12.07,2013-05-07 04:01:00,
2013-05-07 00:31:00,44.6,44.6,26.63,North,0,0.0,0.0,100,0.00,,,-99.99,VWS V12.07,2013-05-07 04:31:00,
2013-05-07 01:01:00,44.5,44.5,26.62,North,0,0.0,0.0,100,0.00,,,-99.99,VWS V12.07,2013-05-07 05:01:00,
2013-05-07 01:31:00,44.6,44.6,26.61,North,0,0.0,0.0,100,0.00,,,-99.99,VWS V12.07,2013-05-07 05:31:00,
2013-05-07 02:01:00,44.8,44.8,26.60,North,0,0.0,0.0,100,0.00,,,-99.99,VWS V12.07,2013-05-07 06:01:00,
2013-05-07 02:31:00,45.1,45.1,26.60,North,0,0.0,0.0,100,0.04,,,-99.99,VWS V12.07,2013-05-07 06:31:00,
2013-05-07 03:01:00,45.7,45.7,26.60,North,0,0.0,0.0,100,0.04,,,-99.99,VWS V12.07,2013-05-07 07:01:00,
2013-05-07 03:31:00,45.8,45.8,26.60,North,0,0.0,5.0,100,0.00,,,-99.99,VWS V12.07,2013-05-07 07:31:00,
2013-05-07 04:01:00,45.4,45.4,26.59,North,0,0.0,2.0,100,0.00,,,-99.99,VWS V12.07,2013-05-07 08:01:00,
2013-05-07 04:31:00,45.6,45.6,26.60,North,0,0.0,0.0,100,0.00,,,-99.99,VWS V12.07,2013-05-07 08:31:00,
2013-05-07 05:02:00,45.8,45.8,26.60,North,0,0.0,0.0,100,0.00,,,-99.99,VWS V12.07,2013-05-07 09:02:00,
2013-05-07 05:31:00,46.1,46.1,26.61,North,0,0.0,0.0,100,0.00,,,-99.99,VWS V12.07,2013-05-07 09:31:00,
2013-05-07 06:01:00,45.8,45.8,26.61,North,0,3.0,4.0,100,0.00,,,-99.99,VWS V12.07,2013-05-07 10:01:00,
2013-05-07 06:31:00,46.3,46.3,26.62,North,0,2.0,14.0,100,0.00,,,-99.99,VWS V12.07,2013-05-07 10:31:00,
2013-05-07 07:01:00,46.6,46.6,26.62,North,0,0.0,2.0,100,0.00,,,-99.99,VWS V12.07,2013-05-07 11:01:00,
2013-05-07 07:31:00,47.6,47.6,26.62,North,0,0.0,0.0,100,0.00,,,-99.99,VWS V12.07,2013-05-07 11:31:00,
2013-05-07 08:01:00,49.9,49.9,26.63,North,0,4.0,4.0,100,0.00,,,-99.99,VWS V12.07,2013-05-07 12:01:00,
2013-05-07 08:31:00,51.8,51.8,26.63,North,0,0.0,4.0,100,0.00,,,-99.99,VWS V12.07,2013-05-07 12:31:00,
2013-05-07 09:01:00,51.4,51.4,26.64,North,0,0.0,3.0,100,0.00,,,-99.99,VWS V12.07,2013-05-07 13:01:00,
2013-05-07 09:31:00,52.1,52.1,26.65,North,0,5.0,7.0,100,0.00,,,-99.99,VWS V12.07,2013-05-07 13:31:00,
2013-05-07 10:01:00,53.5,53.5,26.64,North,0,1.0,8.0,100,0.00,,,-99.99,VWS V12.07,2013-05-07 14:01:00,
2013-05-07 10:31:00,52.6,52.6,26.65,North,0,2.0,11.0,100,0.00,,,-99.99,VWS V12.07,2013-05-07 14:31:00,
2013-05-07 11:01:00,52.6,52.0,26.64,North,0,0.0,4.0,98,0.00,,,-99.99,VWS V12.07,2013-05-07 15:01:00,
2013-05-07 11:31:00,47.4,47.4,26.64,North,0,1.0,6.0,100,0.16,,,-99.99,VWS V12.07,2013-05-07 15:31:00,
2013-05-07 12:01:00,48.8,48.8,26.63,North,0,4.0,4.0,100,0.17,,,-99.99,VWS V12.07,2013-05-07 16:01:00,
2013-05-07 12:31:00,48.9,48.9,26.63,North,0,9.0,9.0,100,0.04,,,-99.99,VWS V12.07,2013-05-07 16:31:00,
2013-05-07 13:01:00,48.3,48.3,26.63,North,0,5.0,10.0,100,0.09,,,-99.99,VWS V12.07,2013-05-07 17:01:00,
2013-05-07 13:31:00,49.0,49.0,26.64,North,0,3.0,5.0,100,0.09,,,-99.99,VWS V12.07,2013-05-07 17:31:00,
2013-05-07 14:01:00,47.3,47.3,26.63,North,0,0.0,3.0,100,0.09,,,-99.99,VWS V12.07,2013-05-07 18:01:00,
2013-05-07 14:31:00,47.6,47.6,26.64,North,0,7.0,7.0,100,0.12,,,-99.99,VWS V12.07,2013-05-07 18:31:00,
2013-05-07 15:01:00,47.7,47.7,26.62,North,0,1.0,3.0,100,0.10,,,-99.99,VWS V12.07,2013-05-07 19:01:00,
2013-05-07 15:31:00,48.8,48.8,26.63,North,0,0.0,2.0,100,0.05,,,-99.99,VWS V12.07,2013-05-07 19:31:00,
2013-05-07 16:01:00,48.5,48.5,26.63,North,0,2.0,5.0,100,0.04,,,-99.99,VWS V12.07,2013-05-07 20:01:00,
2013-05-07 16:31:00,48.1,48.1,26.64,North,0,0.0,35.0,100,0.06,,,-99.99,VWS V12.07,2013-05-07 20:31:00,
2013-05-07 17:01:00,47.3,47.3,26.64,North,0,0.0,0.0,100,0.09,,,-99.99,VWS V12.07,2013-05-07 21:01:00,
2013-05-07 17:31:00,47.4,47.4,26.65,North,0,0.0,1.0,100,0.10,,,-99.99,VWS V12.07,2013-05-07 21:31:00,
2013-05-07 18:01:00,47.3,47.3,26.65,North,0,1.0,4.0,100,0.09,,,-99.99,VWS V12.07,2013-05-07 22:01:00,
2013-05-07 18:31:00,46.7,46.7,26.64,North,0,4.0,4.0,100,0.08,,,-99.99,VWS V12.07,2013-05-07 22:31:00,
2013-05-07 19:01:00,46.6,46.6,26.65,North,0,0.0,6.0,100,0.01,,,-99.99,VWS V12.07,2013-05-07 23:01:00,
2013-05-07 19:31:00,46.1,46.1,26.65,West,274,2.0,2.0,100,0.00,,,-99.99,VWS V12.07,2013-05-07 23:31:00,
2013-05-07 20:01:00,46.0,46.0,26.65,North,0,1.0,1.0,100,0.00,,,-99.99,VWS V12.07,2013-05-08 00:01:00,
2013-05-07 20:31:00,45.6,45.6,26.65,North,0,1.0,2.0,100,0.00,,,-99.99,VWS V12.07,2013-05-08 00:31:00,
2013-05-07 21:01:00,45.6,45.6,26.65,North,0,0.0,3.0,100,0.00,,,-99.99,VWS V12.07,2013-05-08 01:01:00,
2013-05-07 21:31:00,46.1,46.1,26.65,NNW,346,1.0,7.0,100,0.00,,,-99.99,VWS V12.07,2013-05-08 01:31:00,
2013-05-07 22:01:00,46.7,46.7,26.66,North,352,2.0,2.0,100,0.00,,,-99.99,VWS V12.07,2013-05-08 02:01:00,
2013-05-07 22:31:00,46.6,46.6,26.67,North,349,0.0,2.0,100,0.00,,,-99.99,VWS V12.07,2013-05-08 02:31:00,
2013-05-07 23:01:00,46.7,46.7,26.67,NNW,331,1.0,3.0,100,0.00,,,-99.99,VWS V12.07,2013-05-08 03:01:00,
2013-05-07 23:31:00,46.7,46.7,26.67,NW,325,1.0,3.0,100,0.00,,,-99.99,VWS V12.07,2013-05-08 03:31:00,